KELK/ELK METAR and TAF weather

Enter ICAO airport designator
Station Type Date Time Source
KELK METAR 2019/10/21 02:55 UTC NOAA

KELK 210255Z AUTO 34013G20KT 10SM CLR 15/M02 A2971 RMK AO2 T01511018


Station Type Date Time Source
KELK Decoded METAR 2019/10/21 02:55 UTC NOAA

Station name not available
Oct 20, 2019 - 10:55 PM EDT / 2019.10.21 0255 UTC
Wind: from the NNW (340 degrees) at 15 MPH (13 KT) gusting to 23 MPH (20 KT):0
Visibility: 10 mile(s):0
Sky conditions: clear
Temperature: 59.2 F (15.1 C)
Dew Point: 28.8 F (-1.8 C)
Relative Humidity: 31%
Pressure (altimeter): 29.71 in. Hg (1006 hPa)
ob: KELK 210255Z AUTO 34013G20KT 10SM CLR 15/M02 A2971 RMK AO2 T01511018
cycle: 3

Station Type Date Time Source
KELK TAF UTC NOAA

Error!

Example: see airport list